Time;durP1;ratioP1;P1;durP2;ratioP2;P2;SDS_P1;SDS_P2;PMS_P1;PMS_P2;Temp;Humidity;BMP_temperature;BMP_pressure;BME280_temperature;BME280_humidity;BME280_pressure;Samples;Min_cycle;Max_cycle;Signal;HPM_P1;HPM_P2
2023/11/08 00:00:55;;;;;;;2.47;0.80;;;19.00;57.10;;;;;;6217975;23;20160;-80
2023/11/08 00:03:21;;;;;;;1.80;0.90;;;19.00;57.10;;;;;;6191330;23;20134;-83
2023/11/08 00:05:50;;;;;;;1.83;0.90;;;19.10;57.10;;;;;;6217682;23;20562;-82
2023/11/08 00:08:20;;;;;;;1.10;0.90;;;19.10;57.10;;;;;;6166421;23;20142;-81
2023/11/08 00:10:46;;;;;;;3.33;1.08;;;19.00;57.10;;;;;;6116928;23;20157;-83
2023/11/08 00:13:12;;;;;;;0.93;0.80;;;19.00;57.10;;;;;;6166149;23;20130;-81
2023/11/08 00:15:40;;;;;;;1.23;0.95;;;19.00;57.80;;;;;;6191020;23;20166;-81
2023/11/08 00:18:09;;;;;;;1.67;0.90;;;19.00;57.10;;;;;;6141101;23;20213;-82
2023/11/08 00:20:35;;;;;;;1.90;1.10;;;19.00;57.10;;;;;;6142038;23;20150;-81
2023/11/08 00:23:03;;;;;;;1.25;0.90;;;19.00;57.10;;;;;;6191097;23;20149;-81
2023/11/08 00:25:29;;;;;;;1.83;0.90;;;18.90;57.10;;;;;;6141302;23;20158;-79
2023/11/08 00:27:55;;;;;;;0.80;0.80;;;19.00;57.20;;;;;;6197760;23;20225;-82
2023/11/08 00:30:23;;;;;;;2.45;0.88;;;19.00;57.30;;;;;;6190975;23;20636;-80
2023/11/08 00:32:53;;;;;;;2.08;1.05;;;18.90;57.30;;;;;;6166294;23;20161;-79
2023/11/08 00:35:26;;;;;;;1.67;1.13;;;19.00;57.30;;;;;;6165657;23;20201;-82
2023/11/08 00:37:51;;;;;;;1.60;0.80;;;18.90;57.30;;;;;;6143057;23;20465;-81
2023/11/08 00:40:17;;;;;;;0.80;0.80;;;18.90;57.40;;;;;;6193336;23;20126;-82
2023/11/08 00:42:46;;;;;;;1.23;0.90;;;19.00;57.30;;;;;;6219411;23;20502;-81
2023/11/08 00:45:13;;;;;;;1.55;1.00;;;19.00;57.40;;;;;;6142034;23;20154;-83
2023/11/08 00:47:39;;;;;;;1.15;0.88;;;18.90;57.40;;;;;;6219236;23;20141;-82
2023/11/08 00:50:06;;;;;;;1.95;1.10;;;18.90;57.30;;;;;;6168085;23;20611;-83
2023/11/08 00:52:36;;;;;;;1.98;0.90;;;18.90;57.30;;;;;;6168266;23;20320;-79
2023/11/08 00:55:07;;;;;;;1.20;0.85;;;18.90;57.40;;;;;;6167748;23;20600;-80
2023/11/08 00:57:32;;;;;;;0.88;0.80;;;18.90;57.40;;;;;;6117897;23;20158;-79
2023/11/08 00:59:58;;;;;;;2.45;1.00;;;18.90;57.50;;;;;;6192553;23;20145;-79
2023/11/08 01:02:26;;;;;;;1.08;0.80;;;18.90;57.40;;;;;;6193015;23;20154;-81
2023/11/08 01:04:54;;;;;;;1.45;0.90;;;18.90;57.40;;;;;;6142408;23;20150;-79
2023/11/08 01:07:22;;;;;;;2.35;1.10;;;18.90;57.50;;;;;;6167730;23;20488;-80
2023/11/08 01:09:50;;;;;;;2.13;0.85;;;18.90;57.40;;;;;;6166941;23;20585;-80
2023/11/08 01:12:17;;;;;;;2.45;1.30;;;18.90;57.50;;;;;;6166788;23;20157;-81
2023/11/08 01:14:42;;;;;;;2.80;1.10;;;18.90;57.50;;;;;;6166887;23;20178;-81
2023/11/08 01:17:10;;;;;;;1.63;0.90;;;18.90;57.50;;;;;;6217477;23;20539;-80
2023/11/08 01:19:36;;;;;;;2.00;1.00;;;18.90;57.60;;;;;;6192763;23;20168;-80
2023/11/08 01:22:09;;;;;;;1.33;0.90;;;18.90;57.70;;;;;;6193167;23;20216;-82
2023/11/08 01:24:36;;;;;;;1.08;0.85;;;18.90;57.60;;;;;;6142551;23;20146;-78
2023/11/08 01:27:02;;;;;;;2.38;0.90;;;18.90;57.60;;;;;;6218786;23;20209;-79
2023/11/08 01:29:28;;;;;;;2.97;1.00;;;18.90;57.70;;;;;;6143232;23;20263;-81
2023/11/08 01:31:54;;;;;;;0.90;0.80;;;18.80;57.60;;;;;;6167298;23;20600;-79
2023/11/08 01:34:20;;;;;;;1.00;0.90;;;18.90;57.60;;;;;;6191897;23;20193;-80
2023/11/08 01:36:46;;;;;;;1.77;0.82;;;18.90;57.70;;;;;;6192590;23;20158;-81
2023/11/08 01:39:13;;;;;;;1.85;0.80;;;18.80;57.80;;;;;;6218776;23;20142;-79
2023/11/08 01:41:44;;;;;;;1.50;0.93;;;18.90;57.70;;;;;;6193129;23;20483;-80
2023/11/08 01:44:12;;;;;;;0.88;0.80;;;18.80;57.60;;;;;;6218450;23;20553;-82
2023/11/08 01:46:38;;;;;;;2.58;1.10;;;18.90;57.80;;;;;;6192317;23;20184;-80
2023/11/08 01:49:09;;;;;;;2.00;0.90;;;18.80;57.80;;;;;;6166963;23;20142;-80
2023/11/08 01:51:35;;;;;;;1.70;0.82;;;18.80;57.70;;;;;;6116951;23;20149;-82
2023/11/08 01:54:01;;;;;;;2.70;1.00;;;18.80;57.80;;;;;;6191795;23;20237;-80
2023/11/08 01:56:26;;;;;;;2.40;0.95;;;18.80;57.70;;;;;;6167135;23;20205;-80
2023/11/08 01:58:53;;;;;;;1.00;0.90;;;18.80;57.80;;;;;;6192242;23;20138;-81
2023/11/08 02:01:19;;;;;;;1.90;0.82;;;18.80;57.70;;;;;;6217259;23;20485;-79
2023/11/08 02:03:46;;;;;;;0.70;0.70;;;18.80;57.80;;;;;;6218314;23;20130;-81
2023/11/08 02:06:13;;;;;;;1.35;0.90;;;18.80;57.70;;;;;;6192139;23;20142;-80
2023/11/08 02:08:40;;;;;;;1.80;0.80;;;18.80;57.80;;;;;;6167820;23;20130;-79
2023/11/08 02:11:13;;;;;;;1.75;0.77;;;18.80;57.80;;;;;;6216668;23;20224;-80
2023/11/08 02:13:42;;;;;;;1.85;0.90;;;18.80;57.90;;;;;;6093461;23;20157;-79
2023/11/08 02:16:11;;;;;;;3.38;0.90;;;18.80;58.00;;;;;;6117779;23;20182;-80
2023/11/08 02:18:37;;;;;;;1.20;0.90;;;18.80;58.00;;;;;;6142182;23;20165;-81
2023/11/08 02:21:05;;;;;;;2.63;1.00;;;18.80;58.00;;;;;;6167395;23;20137;-82
2023/11/08 02:23:31;;;;;;;1.20;1.00;;;18.80;57.90;;;;;;6142353;23;20566;-80
2023/11/08 02:25:59;;;;;;;1.00;0.90;;;18.80;57.90;;;;;;6192019;23;20232;-79
2023/11/08 02:28:25;;;;;;;0.98;0.85;;;18.80;57.90;;;;;;6180113;23;20196;-79
2023/11/08 02:30:54;;;;;;;1.75;0.82;;;18.80;58.00;;;;;;6191646;23;20146;-79
2023/11/08 02:33:21;;;;;;;2.50;1.20;;;18.80;58.00;;;;;;6218572;23;20130;-81
2023/11/08 02:35:47;;;;;;;1.83;0.80;;;18.80;58.00;;;;;;6217450;23;20250;-81
2023/11/08 02:38:14;;;;;;;2.20;0.90;;;18.80;58.00;;;;;;6216747;23;20139;-83
2023/11/08 02:40:41;;;;;;;1.25;0.75;;;18.80;57.90;;;;;;6191641;23;20146;-80
2023/11/08 02:43:08;;;;;;;1.75;0.80;;;18.80;58.00;;;;;;6218460;23;20122;-80
2023/11/08 02:45:33;;;;;;;0.95;0.85;;;18.70;58.00;;;;;;6191599;23;20153;-80
2023/11/08 02:48:02;;;;;;;0.77;0.77;;;18.80;58.00;;;;;;6191614;23;20150;-82
2023/11/08 02:50:28;;;;;;;2.65;0.90;;;18.80;58.00;;;;;;6216764;23;20123;-82
2023/11/08 02:52:56;;;;;;;1.02;0.80;;;18.80;58.10;;;;;;6216830;23;20164;-81
2023/11/08 02:55:22;;;;;;;0.80;0.80;;;18.70;58.10;;;;;;6192025;23;20170;-81
2023/11/08 02:57:48;;;;;;;1.60;1.05;;;18.70;58.00;;;;;;6216373;23;20213;-78
2023/11/08 03:00:14;;;;;;;1.00;0.75;;;18.70;58.00;;;;;;6216554;23;20157;-82
2023/11/08 03:02:41;;;;;;;1.27;1.05;;;18.80;58.00;;;;;;6191655;23;20138;-80
2023/11/08 03:05:07;;;;;;;1.08;1.00;;;18.80;58.10;;;;;;6191473;23;20204;-79
2023/11/08 03:07:37;;;;;;;1.30;0.80;;;18.70;58.20;;;;;;6217825;23;20138;-83
2023/11/08 03:10:05;;;;;;;1.63;0.90;;;18.70;58.10;;;;;;6166117;23;20666;-82
2023/11/08 03:12:31;;;;;;;2.95;1.10;;;18.70;58.20;;;;;;6218446;23;20137;-81
2023/11/08 03:15:01;;;;;;;1.25;0.93;;;18.70;58.20;;;;;;6216828;23;20162;-82
2023/11/08 03:17:28;;;;;;;1.30;0.82;;;18.60;58.30;;;;;;6140944;23;20241;-79
2023/11/08 03:19:55;;;;;;;0.80;0.70;;;18.70;58.30;;;;;;6141715;23;20237;-82
2023/11/08 03:22:22;;;;;;;0.95;0.88;;;18.70;58.20;;;;;;6166261;23;20449;-78
2023/11/08 03:24:48;;;;;;;1.17;0.93;;;18.60;58.00;;;;;;6218100;23;20138;-78
2023/11/08 03:27:14;;;;;;;2.33;0.85;;;18.70;58.20;;;;;;6191230;23;20236;-79
2023/11/08 03:29:40;;;;;;;2.40;0.70;;;18.70;58.30;;;;;;6167128;23;20177;-79
2023/11/08 03:32:06;;;;;;;1.80;1.00;;;18.70;58.20;;;;;;6191631;23;20150;-81
2023/11/08 03:34:38;;;;;;;1.77;0.93;;;18.70;58.30;;;;;;6191358;23;20140;-79
2023/11/08 03:37:07;;;;;;;1.52;0.70;;;18.70;58.20;;;;;;6142569;23;20185;-80
2023/11/08 03:39:33;;;;;;;1.50;0.85;;;18.60;58.20;;;;;;6116862;23;20473;-79
2023/11/08 03:42:04;;;;;;;1.65;0.90;;;18.70;58.20;;;;;;6217853;23;20591;-78
2023/11/08 03:44:34;;;;;;;1.10;0.95;;;18.70;58.30;;;;;;6142478;23;20150;-80
2023/11/08 03:47:00;;;;;;;0.95;0.80;;;18.70;58.30;;;;;;6117654;23;20150;-81
2023/11/08 03:49:26;;;;;;;1.80;1.02;;;18.70;58.30;;;;;;6191433;23;20200;-79
2023/11/08 03:51:53;;;;;;;1.13;1.02;;;18.70;58.20;;;;;;6191425;23;20150;-82
2023/11/08 03:54:20;;;;;;;1.30;0.73;;;18.70;58.30;;;;;;6166494;23;20141;-78
2023/11/08 03:56:47;;;;;;;1.17;0.80;;;18.70;58.20;;;;;;6116689;23;20216;-80
2023/11/08 03:59:14;;;;;;;0.80;0.80;;;18.70;58.20;;;;;;6166343;23;20138;-81
2023/11/08 04:01:43;;;;;;;1.88;0.98;;;18.70;58.20;;;;;;6166641;23;20130;-80
2023/11/08 04:04:10;;;;;;;1.60;0.80;;;18.70;58.30;;;;;;6167226;23;20599;-79
2023/11/08 04:06:37;;;;;;;1.58;1.13;;;18.70;58.30;;;;;;6116977;23;20469;-82
2023/11/08 04:09:04;;;;;;;1.15;0.90;;;18.70;58.20;;;;;;6116539;23;20154;-80
2023/11/08 04:11:31;;;;;;;1.17;0.80;;;18.70;58.30;;;;;;6191762;23;20130;-80
2023/11/08 04:13:57;;;;;;;2.50;0.90;;;18.70;58.30;;;;;;6193397;23;20130;-81
2023/11/08 04:16:23;;;;;;;1.83;1.00;;;18.60;58.20;;;;;;6220119;23;20166;-82
2023/11/08 04:18:49;;;;;;;1.23;0.93;;;18.70;58.10;;;;;;6192857;23;20150;-82
2023/11/08 04:21:15;;;;;;;1.67;1.30;;;18.60;58.10;;;;;;6193545;23;20137;-79
2023/11/08 04:23:45;;;;;;;1.15;1.00;;;18.70;58.30;;;;;;6219693;23;20141;-81
2023/11/08 04:26:12;;;;;;;1.00;0.90;;;18.70;58.10;;;;;;6118393;23;20154;-82
2023/11/08 04:28:40;;;;;;;2.00;1.00;;;18.70;58.30;;;;;;6192994;23;20709;-80
2023/11/08 04:31:05;;;;;;;0.85;0.80;;;18.70;58.30;;;;;;6195353;23;20206;-81
2023/11/08 04:33:31;;;;;;;0.80;0.70;;;18.70;58.30;;;;;;6170800;23;20130;-80
2023/11/08 04:35:58;;;;;;;1.50;0.90;;;18.70;58.10;;;;;;6195586;23;20162;-79
2023/11/08 04:38:30;;;;;;;1.00;0.90;;;18.70;58.20;;;;;;6170640;23;20138;-79
2023/11/08 04:40:58;;;;;;;1.77;1.10;;;18.70;58.20;;;;;;6171497;23;20217;-81
2023/11/08 04:43:24;;;;;;;1.13;1.02;;;18.70;58.20;;;;;;6169882;23;20150;-80
2023/11/08 04:45:50;;;;;;;1.42;0.90;;;18.70;58.30;;;;;;6170305;23;20145;-79
2023/11/08 04:48:15;;;;;;;1.02;0.77;;;18.70;58.30;;;;;;6195620;23;20140;-79
2023/11/08 04:50:42;;;;;;;0.90;0.85;;;18.60;58.40;;;;;;6171396;23;20130;-80
2023/11/08 04:53:13;;;;;;;1.08;0.77;;;18.60;58.40;;;;;;6222526;23;20184;-80
2023/11/08 04:55:42;;;;;;;1.67;0.95;;;18.70;58.30;;;;;;6122061;23;20619;-79
2023/11/08 04:58:07;;;;;;;1.38;1.00;;;18.70;58.30;;;;;;6121353;23;20212;-80
2023/11/08 05:00:36;;;;;;;1.15;0.90;;;18.70;59.00;;;;;;6220407;23;20135;-81
2023/11/08 05:03:07;;;;;;;1.40;0.80;;;18.70;58.30;;;;;;6118542;23;20150;-82
2023/11/08 05:05:39;;;;;;;1.55;0.93;;;18.70;58.30;;;;;;6143623;23;20150;-82
2023/11/08 05:08:05;;;;;;;1.13;0.90;;;18.60;58.30;;;;;;6142716;23;20242;-81
2023/11/08 05:10:35;;;;;;;0.90;0.80;;;18.70;58.30;;;;;;6219305;23;20134;-82
2023/11/08 05:13:06;;;;;;;0.73;0.73;;;18.70;58.50;;;;;;6142942;23;20150;-79
2023/11/08 05:15:34;;;;;;;1.25;1.00;;;18.60;58.40;;;;;;6142475;23;20181;-81
2023/11/08 05:18:00;;;;;;;1.98;0.88;;;18.60;58.30;;;;;;6118057;23;20245;-81
2023/11/08 05:20:30;;;;;;;1.27;0.90;;;18.70;58.30;;;;;;6192765;23;20184;-80
2023/11/08 05:22:56;;;;;;;0.60;0.60;;;18.60;58.40;;;;;;6142200;23;20157;-80
2023/11/08 05:25:22;;;;;;;1.00;0.85;;;18.70;58.40;;;;;;6142303;23;20589;-82
2023/11/08 05:27:49;;;;;;;1.02;0.70;;;18.70;58.30;;;;;;6192212;23;20189;-80
2023/11/08 05:30:16;;;;;;;0.85;0.77;;;18.60;58.30;;;;;;6168182;23;20214;-79
2023/11/08 05:32:50;;;;;;;0.93;0.80;;;18.60;58.50;;;;;;6219334;23;20127;-79
2023/11/08 05:35:16;;;;;;;1.45;0.70;;;18.70;58.40;;;;;;6141888;23;20174;-82
2023/11/08 05:37:43;;;;;;;2.28;0.90;;;18.60;58.40;;;;;;6168470;23;20199;-79
2023/11/08 05:40:12;;;;;;;1.00;0.88;;;18.60;58.40;;;;;;6193504;23;20138;-82
2023/11/08 05:42:54;;;;;;;2.38;0.90;;;18.70;58.40;;;;;;6171802;23;20161;-81
2023/11/08 05:45:21;;;;;;;1.60;1.00;;;18.60;58.40;;;;;;6098205;23;20165;-80
2023/11/08 05:47:49;;;;;;;2.03;0.82;;;18.60;58.50;;;;;;6195575;23;20446;-83
2023/11/08 05:50:16;;;;;;;2.00;1.08;;;18.60;58.50;;;;;;6221865;23;20205;-80
2023/11/08 05:52:43;;;;;;;1.27;0.70;;;18.60;58.30;;;;;;6195404;23;20142;-80
2023/11/08 05:55:10;;;;;;;3.08;0.90;;;18.60;58.60;;;;;;6120072;23;20193;-82
2023/11/08 05:57:36;;;;;;;1.38;1.10;;;18.50;58.50;;;;;;6169413;23;20134;-82
2023/11/08 06:00:07;;;;;;;1.45;0.93;;;18.50;58.70;;;;;;6191146;23;20150;-81
2023/11/08 06:02:34;;;;;;;1.05;0.80;;;18.50;58.70;;;;;;6167939;23;20146;-82
2023/11/08 06:05:00;;;;;;;0.85;0.82;;;18.40;58.90;;;;;;6191349;23;20148;-80
2023/11/08 06:07:26;;;;;;;1.35;1.10;;;18.50;58.70;;;;;;6166764;23;20142;-79
2023/11/08 06:09:53;;;;;;;1.00;0.90;;;18.50;58.70;;;;;;6218222;23;20280;-79
2023/11/08 06:12:19;;;;;;;1.42;0.90;;;18.40;58.90;;;;;;6191648;23;20228;-81
2023/11/08 06:14:45;;;;;;;0.80;0.65;;;18.40;58.50;;;;;;6166516;23;20130;-83
2023/11/08 06:17:11;;;;;;;0.93;0.80;;;18.50;58.60;;;;;;6190645;23;20196;-82
2023/11/08 06:19:37;;;;;;;1.92;0.68;;;18.50;58.20;;;;;;6141859;23;20146;-79
2023/11/08 06:22:06;;;;;;;1.70;0.75;;;18.50;58.40;;;;;;6192466;23;20133;-79
2023/11/08 06:24:32;;;;;;;1.02;0.80;;;18.50;59.00;;;;;;6190914;23;20200;-79
2023/11/08 06:27:00;;;;;;;1.27;0.82;;;18.50;58.70;;;;;;6166471;23;20143;-79
2023/11/08 06:29:26;;;;;;;1.08;0.90;;;18.50;58.70;;;;;;6217101;23;20236;-79
2023/11/08 06:31:51;;;;;;;1.90;0.77;;;18.50;58.50;;;;;;6190713;23;20138;-83
2023/11/08 06:34:17;;;;;;;0.80;0.80;;;18.50;58.60;;;;;;6166081;23;20135;-78
2023/11/08 06:36:43;;;;;;;2.35;0.75;;;18.50;58.90;;;;;;6191584;23;20181;-79
2023/11/08 06:39:14;;;;;;;1.02;0.90;;;18.50;58.90;;;;;;6166832;23;20147;-79
2023/11/08 06:41:39;;;;;;;1.50;0.98;;;18.50;58.70;;;;;;6217250;23;20180;-81
2023/11/08 06:44:09;;;;;;;0.95;0.70;;;18.50;58.20;;;;;;6217766;23;20154;-79
2023/11/08 06:46:36;;;;;;;1.17;0.77;;;18.60;58.10;;;;;;6141377;23;20161;-82
2023/11/08 06:49:01;;;;;;;1.65;0.80;;;18.60;58.10;;;;;;6140638;23;20154;-83
2023/11/08 06:51:28;;;;;;;0.88;0.80;;;18.60;58.30;;;;;;6166165;23;20221;-82
2023/11/08 06:53:54;;;;;;;0.80;0.80;;;18.60;58.20;;;;;;6222868;23;20218;-79
2023/11/08 06:56:21;;;;;;;0.80;0.63;;;18.60;58.00;;;;;;6174851;23;20162;-80
2023/11/08 06:58:46;;;;;;;0.73;0.73;;;18.60;58.10;;;;;;6199754;23;20488;-79
2023/11/08 07:01:15;;;;;;;0.95;0.90;;;18.70;58.20;;;;;;6176104;23;20169;-80
2023/11/08 07:03:41;;;;;;;2.30;0.80;;;18.60;58.10;;;;;;6177065;23;20142;-79
2023/11/08 07:06:13;;;;;;;1.30;0.80;;;18.60;58.30;;;;;;6201952;23;20205;-78
2023/11/08 07:08:38;;;;;;;1.13;1.02;;;18.60;58.30;;;;;;6176811;23;20150;-78
2023/11/08 07:11:04;;;;;;;1.20;0.90;;;18.50;58.30;;;;;;6198159;23;20505;-80
2023/11/08 07:13:30;;;;;;;0.80;0.80;;;18.50;58.30;;;;;;6189201;23;20142;-80
2023/11/08 07:15:55;;;;;;;1.10;0.70;;;18.60;58.10;;;;;;6218018;23;20189;-79
2023/11/08 07:18:21;;;;;;;0.82;0.82;;;18.60;57.70;;;;;;6167932;23;20154;-79
2023/11/08 07:20:48;;;;;;;0.80;0.80;;;18.60;57.70;;;;;;6218284;23;20183;-80
2023/11/08 07:23:30;;;;;;;1.00;0.90;;;18.60;57.90;;;;;;6173097;23;20585;-84
2023/11/08 07:26:57;;;;;;;;;;;;;;;;;;;;;
2023/11/08 07:29:23;;;;;;;1.05;0.85;;;18.60;57.80;;;;;;6056573;23;20227;-84
2023/11/08 07:31:51;;;;;;;2.17;0.80;;;18.60;57.60;;;;;;6022384;23;20497;-84
2023/11/08 07:34:21;;;;;;;1.77;1.00;;;18.70;57.60;;;;;;6021629;23;20149;-84
2023/11/08 07:36:51;;;;;;;0.70;0.70;;;18.70;57.50;;;;;;6024830;23;20185;-85
2023/11/08 07:39:52;;;;;;;0.95;0.80;;;18.70;57.60;;;;;;6030504;23;20254;-85
2023/11/08 07:48:05;;;;;;;;;;;;;;;;;;;;;
2023/11/08 07:51:28;;;;;;;;;;;;;;;;;;;;;
2023/11/08 07:54:00;;;;;;;0.80;0.70;;;18.70;57.20;;;;;;6097462;23;20209;-83
2023/11/08 07:57:05;;;;;;;0.77;0.63;;;18.80;57.10;;;;;;6119641;23;20214;-84
2023/11/08 07:59:34;;;;;;;0.90;0.75;;;18.70;57.70;;;;;;6076487;23;20156;-80
2023/11/08 08:02:04;;;;;;;1.23;0.88;;;18.70;57.90;;;;;;6070763;23;20156;-80
2023/11/08 08:04:30;;;;;;;0.75;0.70;;;18.70;57.70;;;;;;6122280;23;20136;-80
2023/11/08 08:07:01;;;;;;;2.63;0.90;;;18.70;57.80;;;;;;6096869;23;20155;-79
2023/11/08 08:09:35;;;;;;;0.50;0.50;;;18.60;57.70;;;;;;6095843;23;20194;-80
2023/11/08 08:12:01;;;;;;;0.70;0.70;;;18.70;57.90;;;;;;6060360;23;20279;-79
2023/11/08 08:14:33;;;;;;;1.77;0.70;;;18.70;57.90;;;;;;6038214;23;20161;-80
2023/11/08 08:17:03;;;;;;;1.50;0.70;;;18.70;58.10;;;;;;5991746;23;20193;-80
2023/11/08 08:19:40;;;;;;;3.88;1.08;;;18.70;57.80;;;;;;5993361;23;20158;-81
2023/11/08 08:22:09;;;;;;;3.60;0.90;;;18.80;57.90;;;;;;6009971;23;20318;-81
2023/11/08 08:24:40;;;;;;;1.92;0.70;;;18.80;57.70;;;;;;6070491;23;20183;-78
2023/11/08 08:27:11;;;;;;;1.90;0.70;;;18.80;57.40;;;;;;6122670;23;20156;-80
2023/11/08 08:29:41;;;;;;;1.77;0.68;;;18.90;57.50;;;;;;6071693;23;20152;-79
2023/11/08 08:32:09;;;;;;;0.70;0.50;;;18.80;57.80;;;;;;6120913;23;20187;-80
2023/11/08 08:34:38;;;;;;;0.70;0.70;;;18.90;57.40;;;;;;6098029;23;20167;-80
2023/11/08 08:37:06;;;;;;;1.83;0.63;;;18.90;57.40;;;;;;6096535;23;20178;-81
2023/11/08 08:39:32;;;;;;;3.15;0.77;;;18.90;57.50;;;;;;6096997;23;20176;-80
2023/11/08 08:41:57;;;;;;;0.95;0.75;;;18.90;57.60;;;;;;6110423;23;20175;-80
2023/11/08 08:44:27;;;;;;;0.70;0.70;;;18.80;57.40;;;;;;6163919;23;20137;-81
2023/11/08 08:46:53;;;;;;;0.93;0.60;;;18.90;57.40;;;;;;6134812;23;20189;-79
2023/11/08 08:49:25;;;;;;;1.50;0.60;;;19.00;57.30;;;;;;6211909;23;20161;-80
2023/11/08 08:51:50;;;;;;;3.83;0.60;;;18.90;57.10;;;;;;6185374;23;20142;-81
2023/11/08 08:54:27;;;;;;;0.60;0.57;;;19.00;57.00;;;;;;6184779;23;20197;-82
2023/11/08 08:57:02;;;;;;;2.40;0.60;;;19.00;57.20;;;;;;6163299;23;20169;-80
2023/11/08 08:59:31;;;;;;;0.80;0.77;;;18.90;57.20;;;;;;6137955;23;20156;-80
2023/11/08 09:02:03;;;;;;;1.08;0.63;;;18.90;57.50;;;;;;6136972;23;20153;-81
2023/11/08 09:04:34;;;;;;;1.85;0.73;;;18.90;57.30;;;;;;6159173;23;20173;-80
2023/11/08 09:07:05;;;;;;;1.02;0.60;;;18.90;57.50;;;;;;6134233;23;20153;-81
2023/11/08 09:09:34;;;;;;;0.60;0.60;;;18.90;57.30;;;;;;6135273;23;20176;-81
2023/11/08 09:12:05;;;;;;;1.55;0.70;;;18.90;57.10;;;;;;6159468;23;20154;-81
2023/11/08 09:14:34;;;;;;;2.38;0.63;;;19.00;56.90;;;;;;6135099;23;20157;-81
2023/11/08 09:17:03;;;;;;;1.75;0.60;;;19.00;57.10;;;;;;6134253;23;20196;-81
2023/11/08 09:19:32;;;;;;;0.70;0.50;;;19.10;56.80;;;;;;6184287;23;20154;-81
2023/11/08 09:22:03;;;;;;;1.45;0.52;;;19.10;56.80;;;;;;6135092;23;20177;-81
2023/11/08 09:24:32;;;;;;;0.85;0.70;;;19.10;56.90;;;;;;6158892;23;20154;-81
2023/11/08 09:26:58;;;;;;;2.55;0.75;;;19.00;57.10;;;;;;6184570;23;20154;-81
2023/11/08 09:29:28;;;;;;;0.82;0.60;;;19.00;57.30;;;;;;6159489;23;20490;-81
2023/11/08 09:31:56;;;;;;;1.85;0.70;;;18.90;57.50;;;;;;6158621;23;20160;-81
2023/11/08 09:34:46;;;;;;;6.95;0.60;;;19.00;57.30;;;;;;6184720;23;20146;-80
2023/11/08 09:37:20;;;;;;;1.50;0.70;;;18.90;57.60;;;;;;6184565;23;20158;-81
2023/11/08 09:39:49;;;;;;;5.95;0.90;;;18.90;57.40;;;;;;6182152;23;20233;-81
2023/11/08 09:42:23;;;;;;;2.15;0.68;;;19.00;57.40;;;;;;6185958;23;20155;-81
2023/11/08 09:44:52;;;;;;;3.70;0.65;;;19.00;57.40;;;;;;6164142;23;20157;-82
2023/11/08 09:47:20;;;;;;;1.95;0.40;;;19.00;57.40;;;;;;6159992;23;20189;-82
2023/11/08 09:49:49;;;;;;;2.58;0.60;;;19.00;57.50;;;;;;6161117;23;20154;-81
2023/11/08 09:52:15;;;;;;;1.17;0.60;;;19.10;57.40;;;;;;6183608;23;20142;-82
2023/11/08 09:54:46;;;;;;;3.13;0.60;;;19.00;57.50;;;;;;6187811;23;20141;-81
2023/11/08 09:57:17;;;;;;;7.28;0.60;;;19.00;57.50;;;;;;6126237;23;20143;-82
2023/11/08 09:59:59;;;;;;;5.22;0.60;;;19.00;57.80;;;;;;6079967;23;20151;-81
2023/11/08 10:02:29;;;;;;;4.90;0.80;;;19.00;58.00;;;;;;6154200;23;20465;-81
2023/11/08 10:05:04;;;;;;;4.13;0.63;;;18.90;58.00;;;;;;6129972;23;20155;-81
2023/11/08 10:07:33;;;;;;;5.72;0.70;;;19.00;58.10;;;;;;6042652;23;20157;-81
2023/11/08 10:10:01;;;;;;;1.42;0.60;;;19.10;58.10;;;;;;6019854;23;20204;-81
2023/11/08 10:12:32;;;;;;;5.97;0.90;;;19.00;58.00;;;;;;6066241;23;20157;-81
2023/11/08 10:15:06;;;;;;;3.55;0.70;;;19.00;57.90;;;;;;6019907;23;20164;-82
2023/11/08 10:17:44;;;;;;;5.70;0.80;;;19.10;57.90;;;;;;5957460;24;20146;-80
2023/11/08 10:20:21;;;;;;;4.90;0.80;;;18.90;58.00;;;;;;6003911;24;20151;-82
2023/11/08 10:22:49;;;;;;;3.95;0.80;;;19.00;58.20;;;;;;5911896;24;20181;-81
2023/11/08 10:25:28;;;;;;;4.20;0.80;;;19.00;58.30;;;;;;5933827;24;20186;-82
2023/11/08 10:28:14;;;;;;;2.90;0.70;;;19.00;58.40;;;;;;5982251;24;20143;-81
2023/11/08 10:30:48;;;;;;;1.52;0.60;;;18.90;58.40;;;;;;5922745;24;20221;-81
2023/11/08 10:33:25;;;;;;;5.72;0.70;;;18.90;58.40;;;;;;5900398;24;20163;-82
2023/11/08 10:35:53;;;;;;;6.78;0.85;;;18.90;58.50;;;;;;5899637;24;20188;-81
2023/11/08 10:38:29;;;;;;;3.80;0.60;;;19.00;59.30;;;;;;5951417;24;20140;-81
2023/11/08 10:41:02;;;;;;;2.40;0.70;;;19.00;58.60;;;;;;5935427;23;20154;-81
2023/11/08 10:43:33;;;;;;;5.85;0.70;;;19.10;58.70;;;;;;6016781;23;20193;-82
2023/11/08 10:46:23;;;;;;;2.75;0.60;;;19.10;58.60;;;;;;5992637;23;20206;-82
2023/11/08 10:51:29;;;;;;;2.70;0.50;;;19.00;58.90;;;;;;6241476;23;20261;-82
2023/11/08 10:53:56;;;;;;;1.58;0.60;;;19.00;58.70;;;;;;6216880;23;20156;-81
2023/11/08 10:56:22;;;;;;;2.30;0.60;;;19.00;58.80;;;;;;6187975;23;20205;-81
2023/11/08 10:58:50;;;;;;;2.25;0.60;;;19.10;58.80;;;;;;6160467;23;20142;-80
2023/11/08 11:01:16;;;;;;;0.95;0.50;;;19.00;58.90;;;;;;6234596;23;20181;-80
2023/11/08 11:03:42;;;;;;;4.03;0.80;;;19.00;58.90;;;;;;6182915;23;20225;-81
2023/11/08 11:06:08;;;;;;;4.82;0.80;;;19.10;58.80;;;;;;6182763;23;20185;-81
2023/11/08 11:08:37;;;;;;;1.23;0.70;;;19.20;58.40;;;;;;6185195;23;20157;-81
2023/11/08 11:11:05;;;;;;;2.10;0.60;;;19.10;58.50;;;;;;6185336;23;20170;-80
2023/11/08 11:13:40;;;;;;;3.00;0.60;;;19.10;58.40;;;;;;6157821;23;20147;-81
2023/11/08 11:16:13;;;;;;;2.30;0.52;;;19.10;58.40;;;;;;6184375;23;20165;-81
2023/11/08 11:18:46;;;;;;;2.17;0.60;;;19.00;58.50;;;;;;6155540;23;20181;-80
2023/11/08 11:21:21;;;;;;;4.15;0.77;;;18.90;58.50;;;;;;6126164;23;20177;-80
2023/11/08 11:23:47;;;;;;;1.77;0.60;;;18.90;58.60;;;;;;6128746;23;20237;-80
2023/11/08 11:26:12;;;;;;;2.40;0.50;;;19.00;58.50;;;;;;6179456;23;20154;-80
2023/11/08 11:28:55;;;;;;;1.88;0.60;;;19.10;58.30;;;;;;6155167;23;20197;-80
2023/11/08 11:31:32;;;;;;;0.77;0.40;;;19.10;58.20;;;;;;6179031;23;20157;-79
2023/11/08 11:34:08;;;;;;;1.30;0.60;;;19.00;58.20;;;;;;6171482;23;20153;-80
2023/11/08 11:37:42;;;;;;;;;;;;;;;;;;;;;
2023/11/08 11:44:31;;;;;;;2.83;0.50;;;19.10;58.20;;;;;;5905379;24;20236;-82
2023/11/08 11:47:39;;;;;;;1.70;0.50;;;19.10;58.10;;;;;;5878518;24;20169;-81
2023/11/08 11:50:07;;;;;;;0.77;0.40;;;19.00;58.30;;;;;;5851676;24;20254;-82
2023/11/08 12:42:50;;;;;;;0.40;0.40;;;19.00;58.20;;;;;;6213562;23;20221;-81
2023/11/08 12:45:32;;;;;;;1.85;0.43;;;19.00;58.20;;;;;;6180004;23;20142;-82
2023/11/08 12:48:06;;;;;;;0.80;0.50;;;19.00;58.30;;;;;;6153948;23;20221;-82
2023/11/08 12:51:08;;;;;;;0.63;0.40;;;18.90;58.30;;;;;;6180823;23;20125;-82
2023/11/08 12:54:03;;;;;;;1.60;0.43;;;18.90;58.40;;;;;;6177475;23;20156;-84
2023/11/08 12:56:40;;;;;;;1.00;0.50;;;18.90;58.40;;;;;;6118867;23;20217;-84
2023/11/08 12:59:12;;;;;;;4.53;0.63;;;19.00;58.40;;;;;;6128441;23;20195;-83
2023/11/08 13:01:39;;;;;;;1.13;0.40;;;18.90;58.40;;;;;;6129105;23;20166;-83
2023/11/08 13:04:06;;;;;;;1.50;0.60;;;18.90;58.50;;;;;;6085583;23;20159;-82
2023/11/08 13:06:37;;;;;;;2.47;0.40;;;19.00;58.50;;;;;;6081770;23;20163;-82
2023/11/08 13:09:04;;;;;;;0.70;0.30;;;19.00;58.30;;;;;;6130861;23;20235;-82
2023/11/08 13:11:31;;;;;;;0.93;0.40;;;18.90;58.20;;;;;;6106668;23;20152;-81
2023/11/08 13:13:58;;;;;;;1.38;0.40;;;18.90;58.30;;;;;;6106640;23;20227;-82
2023/11/08 13:16:24;;;;;;;0.40;0.30;;;18.90;58.50;;;;;;6107853;23;20168;-82
2023/11/08 13:18:53;;;;;;;1.90;0.40;;;18.90;58.50;;;;;;6110296;23;20159;-82
2023/11/08 13:21:47;;;;;;;1.15;0.50;;;18.90;58.50;;;;;;6118236;23;20148;-82
2023/11/08 13:24:14;;;;;;;1.48;0.30;;;18.90;58.50;;;;;;6145723;23;20180;-83
2023/11/08 13:26:46;;;;;;;1.15;0.50;;;18.90;58.50;;;;;;6091725;23;20179;-82
2023/11/08 13:29:12;;;;;;;2.13;0.47;;;18.90;58.50;;;;;;6108899;23;20167;-82
2023/11/08 13:31:49;;;;;;;0.47;0.40;;;18.80;59.10;;;;;;6087486;23;20174;-82
2023/11/08 13:34:24;;;;;;;0.60;0.30;;;18.80;58.50;;;;;;6071708;23;20151;-81
2023/11/08 13:37:00;;;;;;;0.85;0.50;;;18.90;58.50;;;;;;6071491;23;20197;-81
2023/11/08 13:39:32;;;;;;;2.20;0.32;;;18.80;58.40;;;;;;6072642;23;20166;-82
2023/11/08 13:41:57;;;;;;;0.30;0.30;;;18.80;58.40;;;;;;6065170;23;20206;-83
2023/11/08 13:44:26;;;;;;;0.75;0.40;;;18.90;59.10;;;;;;6111215;23;20167;-83
2023/11/08 13:46:57;;;;;;;0.38;0.38;;;18.90;58.40;;;;;;6066460;23;20151;-83
2023/11/08 13:49:26;;;;;;;3.55;0.60;;;18.90;58.20;;;;;;6090345;23;20152;-82
2023/11/08 13:51:52;;;;;;;0.98;0.50;;;18.90;58.30;;;;;;6090188;23;20155;-83
2023/11/08 13:54:27;;;;;;;1.95;0.40;;;18.90;58.40;;;;;;6119982;23;20238;-83
2023/11/08 13:56:53;;;;;;;1.33;0.40;;;18.90;58.40;;;;;;6146474;23;20182;-82
2023/11/08 13:59:22;;;;;;;1.40;0.30;;;18.90;58.40;;;;;;6119078;23;20147;-83
2023/11/08 14:01:59;;;;;;;0.93;0.40;;;18.90;58.50;;;;;;6119392;23;20151;-82
2023/11/08 14:04:30;;;;;;;0.45;0.40;;;18.90;58.40;;;;;;6112603;23;20288;-82
2023/11/08 14:07:03;;;;;;;0.40;0.40;;;18.90;58.40;;;;;;6094441;23;20153;-82